sensor_id;sensor_type;location;lat;lon;timestamp;P1;durP1;ratioP1;P2;durP2;ratioP2
49614;SDS011;35517;45.272;9.984;2023-05-23T00:00:56;37.42;;;26.52;;
49614;SDS011;35517;45.272;9.984;2023-05-23T00:03:23;29.48;;;26.42;;
49614;SDS011;35517;45.272;9.984;2023-05-23T00:05:50;30.75;;;25.23;;
49614;SDS011;35517;45.272;9.984;2023-05-23T00:08:17;29.55;;;26.48;;
49614;SDS011;35517;45.272;9.984;2023-05-23T00:10:43;31.45;;;27.83;;
49614;SDS011;35517;45.272;9.984;2023-05-23T00:13:11;32.67;;;28.48;;
49614;SDS011;35517;45.272;9.984;2023-05-23T00:15:38;32.75;;;28.13;;
49614;SDS011;35517;45.272;9.984;2023-05-23T00:18:06;34.35;;;26.90;;
49614;SDS011;35517;45.272;9.984;2023-05-23T00:20:40;33.47;;;26.55;;
49614;SDS011;35517;45.272;9.984;2023-05-23T00:23:10;34.03;;;29.38;;
49614;SDS011;35517;45.272;9.984;2023-05-23T00:25:43;34.08;;;28.88;;
49614;SDS011;35517;45.272;9.984;2023-05-23T00:28:12;35.00;;;31.25;;
49614;SDS011;35517;45.272;9.984;2023-05-23T00:30:40;35.05;;;30.95;;
49614;SDS011;35517;45.272;9.984;2023-05-23T00:33:07;34.33;;;29.00;;
49614;SDS011;35517;45.272;9.984;2023-05-23T00:35:34;35.58;;;31.33;;
49614;SDS011;35517;45.272;9.984;2023-05-23T00:38:00;35.38;;;31.67;;
49614;SDS011;35517;45.272;9.984;2023-05-23T00:40:28;35.97;;;32.03;;
49614;SDS011;35517;45.272;9.984;2023-05-23T00:42:54;36.50;;;31.50;;
49614;SDS011;35517;45.272;9.984;2023-05-23T00:45:21;36.15;;;28.65;;
49614;SDS011;35517;45.272;9.984;2023-05-23T00:47:47;36.85;;;30.40;;
49614;SDS011;35517;45.272;9.984;2023-05-23T00:50:15;35.10;;;30.80;;
49614;SDS011;35517;45.272;9.984;2023-05-23T00:52:43;40.42;;;30.08;;
49614;SDS011;35517;45.272;9.984;2023-05-23T00:55:11;38.83;;;30.73;;
49614;SDS011;35517;45.272;9.984;2023-05-23T00:57:37;34.97;;;31.42;;
49614;SDS011;35517;45.272;9.984;2023-05-23T01:00:08;37.38;;;32.28;;
49614;SDS011;35517;45.272;9.984;2023-05-23T01:02:44;39.55;;;31.75;;
49614;SDS011;35517;45.272;9.984;2023-05-23T01:05:12;39.25;;;34.92;;
49614;SDS011;35517;45.272;9.984;2023-05-23T01:07:39;38.70;;;33.22;;
49614;SDS011;35517;45.272;9.984;2023-05-23T01:10:06;35.08;;;31.25;;
49614;SDS011;35517;45.272;9.984;2023-05-23T01:12:37;36.88;;;32.92;;
49614;SDS011;35517;45.272;9.984;2023-05-23T01:15:07;38.85;;;31.23;;
49614;SDS011;35517;45.272;9.984;2023-05-23T01:17:43;34.95;;;31.15;;
49614;SDS011;35517;45.272;9.984;2023-05-23T01:20:15;40.50;;;32.65;;
49614;SDS011;35517;45.272;9.984;2023-05-23T01:27:50;39.78;;;33.60;;
49614;SDS011;35517;45.272;9.984;2023-05-23T01:30:18;41.90;;;32.33;;
49614;SDS011;35517;45.272;9.984;2023-05-23T01:32:49;50.03;;;32.25;;
49614;SDS011;35517;45.272;9.984;2023-05-23T01:35:17;40.40;;;31.88;;
49614;SDS011;35517;45.272;9.984;2023-05-23T01:37:45;36.47;;;31.85;;
49614;SDS011;35517;45.272;9.984;2023-05-23T01:40:12;36.95;;;31.33;;
49614;SDS011;35517;45.272;9.984;2023-05-23T01:42:38;74.15;;;33.05;;
49614;SDS011;35517;45.272;9.984;2023-05-23T01:45:05;35.28;;;31.45;;
49614;SDS011;35517;45.272;9.984;2023-05-23T01:47:32;38.40;;;32.78;;
49614;SDS011;35517;45.272;9.984;2023-05-23T01:49:59;39.22;;;32.65;;
49614;SDS011;35517;45.272;9.984;2023-05-23T01:52:26;35.50;;;31.70;;
49614;SDS011;35517;45.272;9.984;2023-05-23T01:54:52;36.80;;;32.00;;
49614;SDS011;35517;45.272;9.984;2023-05-23T01:57:21;38.22;;;33.92;;
49614;SDS011;35517;45.272;9.984;2023-05-23T01:59:47;37.47;;;33.47;;
49614;SDS011;35517;45.272;9.984;2023-05-23T02:02:14;36.35;;;31.02;;
49614;SDS011;35517;45.272;9.984;2023-05-23T02:04:40;38.67;;;33.05;;
49614;SDS011;35517;45.272;9.984;2023-05-23T02:07:07;37.53;;;31.52;;
49614;SDS011;35517;45.272;9.984;2023-05-23T02:09:33;32.88;;;29.40;;
49614;SDS011;35517;45.272;9.984;2023-05-23T02:12:00;36.00;;;28.45;;
49614;SDS011;35517;45.272;9.984;2023-05-23T02:14:26;32.70;;;28.65;;
49614;SDS011;35517;45.272;9.984;2023-05-23T02:16:53;34.40;;;30.38;;
49614;SDS011;35517;45.272;9.984;2023-05-23T02:19:19;32.85;;;29.20;;
49614;SDS011;35517;45.272;9.984;2023-05-23T02:21:46;33.38;;;29.75;;
49614;SDS011;35517;45.272;9.984;2023-05-23T02:24:13;32.20;;;28.42;;
49614;SDS011;35517;45.272;9.984;2023-05-23T02:26:39;35.10;;;28.77;;
49614;SDS011;35517;45.272;9.984;2023-05-23T02:29:08;32.63;;;28.20;;
49614;SDS011;35517;45.272;9.984;2023-05-23T02:31:35;35.35;;;29.48;;
49614;SDS011;35517;45.272;9.984;2023-05-23T02:34:01;36.22;;;28.38;;
49614;SDS011;35517;45.272;9.984;2023-05-23T02:36:28;32.78;;;28.83;;
49614;SDS011;35517;45.272;9.984;2023-05-23T02:38:57;32.63;;;29.05;;
49614;SDS011;35517;45.272;9.984;2023-05-23T02:41:24;39.92;;;28.73;;
49614;SDS011;35517;45.272;9.984;2023-05-23T02:43:51;38.40;;;29.83;;
49614;SDS011;35517;45.272;9.984;2023-05-23T02:46:18;40.15;;;30.38;;
49614;SDS011;35517;45.272;9.984;2023-05-23T02:48:44;34.83;;;28.73;;
49614;SDS011;35517;45.272;9.984;2023-05-23T02:51:11;41.58;;;30.92;;
49614;SDS011;35517;45.272;9.984;2023-05-23T02:53:38;38.15;;;31.00;;
49614;SDS011;35517;45.272;9.984;2023-05-23T02:56:05;45.10;;;31.27;;
49614;SDS011;35517;45.272;9.984;2023-05-23T02:58:33;41.13;;;30.42;;
49614;SDS011;35517;45.272;9.984;2023-05-23T03:01:04;38.28;;;31.10;;
49614;SDS011;35517;45.272;9.984;2023-05-23T03:03:32;35.63;;;31.60;;
49614;SDS011;35517;45.272;9.984;2023-05-23T03:06:00;35.97;;;29.40;;
49614;SDS011;35517;45.272;9.984;2023-05-23T03:08:27;38.35;;;30.77;;
49614;SDS011;35517;45.272;9.984;2023-05-23T03:10:54;41.20;;;31.70;;
49614;SDS011;35517;45.272;9.984;2023-05-23T03:13:20;37.58;;;30.67;;
49614;SDS011;35517;45.272;9.984;2023-05-23T03:15:47;37.08;;;31.33;;
49614;SDS011;35517;45.272;9.984;2023-05-23T03:18:13;39.28;;;31.52;;
49614;SDS011;35517;45.272;9.984;2023-05-23T03:20:40;38.03;;;30.75;;
49614;SDS011;35517;45.272;9.984;2023-05-23T03:23:07;38.20;;;32.08;;
49614;SDS011;35517;45.272;9.984;2023-05-23T03:25:34;35.05;;;29.73;;
49614;SDS011;35517;45.272;9.984;2023-05-23T03:28:01;38.83;;;32.95;;
49614;SDS011;35517;45.272;9.984;2023-05-23T03:30:28;41.65;;;36.05;;
49614;SDS011;35517;45.272;9.984;2023-05-23T03:32:55;42.30;;;34.67;;
49614;SDS011;35517;45.272;9.984;2023-05-23T03:35:21;38.33;;;34.17;;
49614;SDS011;35517;45.272;9.984;2023-05-23T03:37:48;41.00;;;35.65;;
49614;SDS011;35517;45.272;9.984;2023-05-23T03:40:14;45.65;;;36.10;;
49614;SDS011;35517;45.272;9.984;2023-05-23T03:42:41;41.40;;;36.85;;
49614;SDS011;35517;45.272;9.984;2023-05-23T03:45:09;37.45;;;32.47;;
49614;SDS011;35517;45.272;9.984;2023-05-23T03:47:38;41.85;;;35.25;;
49614;SDS011;35517;45.272;9.984;2023-05-23T03:50:05;48.42;;;35.72;;
49614;SDS011;35517;45.272;9.984;2023-05-23T03:52:33;46.38;;;37.10;;
49614;SDS011;35517;45.272;9.984;2023-05-23T03:55:00;40.35;;;35.45;;
49614;SDS011;35517;45.272;9.984;2023-05-23T03:57:26;44.45;;;38.47;;
49614;SDS011;35517;45.272;9.984;2023-05-23T03:59:53;44.67;;;36.67;;
49614;SDS011;35517;45.272;9.984;2023-05-23T04:02:20;37.10;;;33.20;;
49614;SDS011;35517;45.272;9.984;2023-05-23T04:04:47;41.10;;;33.88;;
49614;SDS011;35517;45.272;9.984;2023-05-23T04:07:13;45.50;;;36.85;;
49614;SDS011;35517;45.272;9.984;2023-05-23T04:09:41;36.63;;;32.65;;
49614;SDS011;35517;45.272;9.984;2023-05-23T04:12:10;36.63;;;32.60;;
49614;SDS011;35517;45.272;9.984;2023-05-23T04:14:37;34.63;;;30.77;;
49614;SDS011;35517;45.272;9.984;2023-05-23T04:17:04;42.45;;;33.25;;
49614;SDS011;35517;45.272;9.984;2023-05-23T04:19:34;41.83;;;32.78;;
49614;SDS011;35517;45.272;9.984;2023-05-23T04:22:00;37.33;;;33.20;;
49614;SDS011;35517;45.272;9.984;2023-05-23T04:24:27;36.70;;;32.80;;
49614;SDS011;35517;45.272;9.984;2023-05-23T04:26:54;35.53;;;31.92;;
49614;SDS011;35517;45.272;9.984;2023-05-23T04:29:21;38.80;;;32.53;;
49614;SDS011;35517;45.272;9.984;2023-05-23T04:31:49;39.17;;;31.30;;
49614;SDS011;35517;45.272;9.984;2023-05-23T04:34:16;32.53;;;29.10;;
49614;SDS011;35517;45.272;9.984;2023-05-23T04:36:43;35.60;;;28.45;;
49614;SDS011;35517;45.272;9.984;2023-05-23T04:39:11;32.20;;;27.83;;
49614;SDS011;35517;45.272;9.984;2023-05-23T04:41:46;34.47;;;26.75;;
49614;SDS011;35517;45.272;9.984;2023-05-23T04:44:38;29.52;;;25.38;;
49614;SDS011;35517;45.272;9.984;2023-05-23T04:47:19;35.17;;;26.77;;
49614;SDS011;35517;45.272;9.984;2023-05-23T04:49:57;34.28;;;25.15;;
49614;SDS011;35517;45.272;9.984;2023-05-23T04:52:24;29.77;;;25.30;;
49614;SDS011;35517;45.272;9.984;2023-05-23T04:54:53;29.23;;;24.02;;
49614;SDS011;35517;45.272;9.984;2023-05-23T04:57:20;31.60;;;23.58;;
49614;SDS011;35517;45.272;9.984;2023-05-23T04:59:49;26.25;;;22.75;;
49614;SDS011;35517;45.272;9.984;2023-05-23T05:02:16;27.10;;;23.08;;
49614;SDS011;35517;45.272;9.984;2023-05-23T05:04:43;25.02;;;22.45;;
49614;SDS011;35517;45.272;9.984;2023-05-23T05:07:10;28.48;;;22.58;;
49614;SDS011;35517;45.272;9.984;2023-05-23T05:09:38;24.27;;;21.73;;
49614;SDS011;35517;45.272;9.984;2023-05-23T05:12:04;21.90;;;19.60;;
49614;SDS011;35517;45.272;9.984;2023-05-23T05:14:31;24.75;;;20.85;;
49614;SDS011;35517;45.272;9.984;2023-05-23T05:16:58;23.30;;;19.70;;
49614;SDS011;35517;45.272;9.984;2023-05-23T05:24:42;24.52;;;17.80;;
49614;SDS011;35517;45.272;9.984;2023-05-23T05:27:09;22.85;;;17.00;;
49614;SDS011;35517;45.272;9.984;2023-05-23T05:29:36;20.42;;;16.75;;
49614;SDS011;35517;45.272;9.984;2023-05-23T05:32:03;24.95;;;15.18;;
49614;SDS011;35517;45.272;9.984;2023-05-23T05:34:33;19.70;;;15.30;;
49614;SDS011;35517;45.272;9.984;2023-05-23T05:37:00;17.83;;;15.20;;
49614;SDS011;35517;45.272;9.984;2023-05-23T05:41:53;19.02;;;13.57;;
49614;SDS011;35517;45.272;9.984;2023-05-23T05:44:20;19.38;;;15.10;;
49614;SDS011;35517;45.272;9.984;2023-05-23T05:46:47;28.80;;;14.38;;
49614;SDS011;35517;45.272;9.984;2023-05-23T05:49:14;19.25;;;13.25;;
49614;SDS011;35517;45.272;9.984;2023-05-23T05:51:41;16.35;;;13.82;;
49614;SDS011;35517;45.272;9.984;2023-05-23T05:54:07;18.88;;;14.40;;
49614;SDS011;35517;45.272;9.984;2023-05-23T05:56:34;21.88;;;14.30;;
49614;SDS011;35517;45.272;9.984;2023-05-23T05:59:00;17.90;;;12.85;;
49614;SDS011;35517;45.272;9.984;2023-05-23T06:01:27;18.02;;;13.25;;
49614;SDS011;35517;45.272;9.984;2023-05-23T06:03:55;14.82;;;11.57;;
49614;SDS011;35517;45.272;9.984;2023-05-23T06:06:22;14.50;;;12.05;;
49614;SDS011;35517;45.272;9.984;2023-05-23T06:08:49;14.45;;;11.20;;
49614;SDS011;35517;45.272;9.984;2023-05-23T06:11:16;17.27;;;11.18;;
49614;SDS011;35517;45.272;9.984;2023-05-23T06:13:42;13.18;;;11.75;;
49614;SDS011;35517;45.272;9.984;2023-05-23T06:16:09;16.10;;;11.32;;
49614;SDS011;35517;45.272;9.984;2023-05-23T06:18:36;13.75;;;10.90;;
49614;SDS011;35517;45.272;9.984;2023-05-23T06:21:02;13.52;;;10.93;;
49614;SDS011;35517;45.272;9.984;2023-05-23T06:23:30;13.00;;;10.55;;
49614;SDS011;35517;45.272;9.984;2023-05-23T06:25:57;12.65;;;11.35;;
49614;SDS011;35517;45.272;9.984;2023-05-23T06:28:24;13.63;;;10.70;;
49614;SDS011;35517;45.272;9.984;2023-05-23T06:30:50;14.32;;;10.85;;
49614;SDS011;35517;45.272;9.984;2023-05-23T06:33:18;12.15;;;10.93;;
49614;SDS011;35517;45.272;9.984;2023-05-23T06:35:45;13.82;;;11.30;;
49614;SDS011;35517;45.272;9.984;2023-05-23T06:38:11;14.20;;;11.75;;
49614;SDS011;35517;45.272;9.984;2023-05-23T06:40:39;12.70;;;11.40;;
49614;SDS011;35517;45.272;9.984;2023-05-23T06:43:05;15.48;;;11.05;;
49614;SDS011;35517;45.272;9.984;2023-05-23T06:45:44;13.77;;;11.60;;
49614;SDS011;35517;45.272;9.984;2023-05-23T06:48:12;19.80;;;12.02;;
49614;SDS011;35517;45.272;9.984;2023-05-23T06:50:39;13.63;;;10.80;;
49614;SDS011;35517;45.272;9.984;2023-05-23T06:53:06;14.05;;;12.70;;
49614;SDS011;35517;45.272;9.984;2023-05-23T06:55:45;14.13;;;11.90;;
49614;SDS011;35517;45.272;9.984;2023-05-23T06:58:14;12.30;;;11.02;;
49614;SDS011;35517;45.272;9.984;2023-05-23T07:00:41;14.23;;;10.68;;
49614;SDS011;35517;45.272;9.984;2023-05-23T07:03:25;15.77;;;11.15;;
49614;SDS011;35517;45.272;9.984;2023-05-23T07:05:56;18.65;;;11.50;;
49614;SDS011;35517;45.272;9.984;2023-05-23T07:08:22;13.57;;;11.32;;
49614;SDS011;35517;45.272;9.984;2023-05-23T07:10:59;12.05;;;10.38;;
49614;SDS011;35517;45.272;9.984;2023-05-23T07:13:38;13.15;;;10.50;;
49614;SDS011;35517;45.272;9.984;2023-05-23T07:16:04;13.45;;;10.98;;
49614;SDS011;35517;45.272;9.984;2023-05-23T07:18:34;12.00;;;10.82;;
49614;SDS011;35517;45.272;9.984;2023-05-23T07:21:01;12.73;;;11.30;;
49614;SDS011;35517;45.272;9.984;2023-05-23T07:23:31;13.95;;;11.70;;
49614;SDS011;35517;45.272;9.984;2023-05-23T07:25:58;13.77;;;10.88;;
49614;SDS011;35517;45.272;9.984;2023-05-23T07:31:28;14.32;;;10.25;;
49614;SDS011;35517;45.272;9.984;2023-05-23T07:33:57;13.50;;;10.65;;
49614;SDS011;35517;45.272;9.984;2023-05-23T07:36:30;16.35;;;11.45;;
49614;SDS011;35517;45.272;9.984;2023-05-23T07:38:58;14.70;;;10.90;;
49614;SDS011;35517;45.272;9.984;2023-05-23T07:41:25;14.18;;;11.40;;
49614;SDS011;35517;45.272;9.984;2023-05-23T07:43:52;13.77;;;10.93;;
49614;SDS011;35517;45.272;9.984;2023-05-23T07:46:18;14.75;;;12.95;;
49614;SDS011;35517;45.272;9.984;2023-05-23T07:48:47;14.20;;;10.63;;
49614;SDS011;35517;45.272;9.984;2023-05-23T07:51:18;17.50;;;11.48;;
49614;SDS011;35517;45.272;9.984;2023-05-23T07:53:46;11.88;;;10.30;;
49614;SDS011;35517;45.272;9.984;2023-05-23T07:56:13;12.05;;;10.95;;
49614;SDS011;35517;45.272;9.984;2023-05-23T08:01:27;12.82;;;11.02;;
49614;SDS011;35517;45.272;9.984;2023-05-23T08:04:00;11.45;;;10.45;;
49614;SDS011;35517;45.272;9.984;2023-05-23T08:06:32;12.98;;;10.63;;
49614;SDS011;35517;45.272;9.984;2023-05-23T08:09:02;13.85;;;10.90;;
49614;SDS011;35517;45.272;9.984;2023-05-23T08:11:32;11.43;;;9.90;;
49614;SDS011;35517;45.272;9.984;2023-05-23T08:13:59;11.45;;;10.27;;
49614;SDS011;35517;45.272;9.984;2023-05-23T08:16:46;15.27;;;10.95;;
49614;SDS011;35517;45.272;9.984;2023-05-23T08:19:19;11.45;;;10.35;;
49614;SDS011;35517;45.272;9.984;2023-05-23T08:21:45;11.35;;;10.13;;
49614;SDS011;35517;45.272;9.984;2023-05-23T08:24:12;21.10;;;10.40;;
49614;SDS011;35517;45.272;9.984;2023-05-23T08:26:39;20.38;;;11.13;;
49614;SDS011;35517;45.272;9.984;2023-05-23T08:29:09;11.18;;;9.82;;
49614;SDS011;35517;45.272;9.984;2023-05-23T08:31:36;15.57;;;10.00;;
49614;SDS011;35517;45.272;9.984;2023-05-23T08:37:12;11.75;;;9.38;;
49614;SDS011;35517;45.272;9.984;2023-05-23T08:39:39;10.60;;;9.55;;
49614;SDS011;35517;45.272;9.984;2023-05-23T08:42:24;13.15;;;10.88;;
49614;SDS011;35517;45.272;9.984;2023-05-23T08:44:51;12.82;;;10.02;;
49614;SDS011;35517;45.272;9.984;2023-05-23T08:47:19;14.95;;;10.02;;
49614;SDS011;35517;45.272;9.984;2023-05-23T08:49:57;12.30;;;10.77;;
49614;SDS011;35517;45.272;9.984;2023-05-23T08:52:26;16.48;;;9.98;;
49614;SDS011;35517;45.272;9.984;2023-05-23T08:54:54;10.68;;;9.57;;
49614;SDS011;35517;45.272;9.984;2023-05-23T08:57:21;10.05;;;9.15;;
49614;SDS011;35517;45.272;9.984;2023-05-23T08:59:54;14.50;;;9.05;;
49614;SDS011;35517;45.272;9.984;2023-05-23T09:02:22;12.48;;;10.50;;
49614;SDS011;35517;45.272;9.984;2023-05-23T09:04:53;16.17;;;9.65;;
49614;SDS011;35517;45.272;9.984;2023-05-23T09:07:23;10.95;;;9.95;;
49614;SDS011;35517;45.272;9.984;2023-05-23T09:09:51;13.70;;;9.02;;
49614;SDS011;35517;45.272;9.984;2023-05-23T09:12:18;11.77;;;9.40;;
49614;SDS011;35517;45.272;9.984;2023-05-23T09:14:47;9.98;;;9.05;;
49614;SDS011;35517;45.272;9.984;2023-05-23T09:20:15;13.95;;;8.75;;
49614;SDS011;35517;45.272;9.984;2023-05-23T09:22:49;10.10;;;9.05;;
49614;SDS011;35517;45.272;9.984;2023-05-23T09:25:17;13.18;;;8.05;;
49614;SDS011;35517;45.272;9.984;2023-05-23T09:27:44;10.02;;;9.02;;
49614;SDS011;35517;45.272;9.984;2023-05-23T09:30:11;11.85;;;8.70;;
49614;SDS011;35517;45.272;9.984;2023-05-23T09:32:38;8.02;;;7.32;;
49614;SDS011;35517;45.272;9.984;2023-05-23T09:35:06;8.88;;;7.75;;
49614;SDS011;35517;45.272;9.984;2023-05-23T09:37:38;9.23;;;6.72;;
49614;SDS011;35517;45.272;9.984;2023-05-23T09:40:06;13.82;;;7.82;;
49614;SDS011;35517;45.272;9.984;2023-05-23T09:42:42;10.32;;;8.38;;
49614;SDS011;35517;45.272;9.984;2023-05-23T09:45:09;9.88;;;7.55;;
49614;SDS011;35517;45.272;9.984;2023-05-23T09:47:36;10.40;;;7.90;;
49614;SDS011;35517;45.272;9.984;2023-05-23T09:50:02;8.32;;;6.82;;
49614;SDS011;35517;45.272;9.984;2023-05-23T09:52:35;9.95;;;7.28;;
49614;SDS011;35517;45.272;9.984;2023-05-23T09:55:05;11.43;;;8.73;;
49614;SDS011;35517;45.272;9.984;2023-05-23T09:57:36;13.52;;;9.15;;
49614;SDS011;35517;45.272;9.984;2023-05-23T10:00:04;8.05;;;7.40;;
49614;SDS011;35517;45.272;9.984;2023-05-23T10:05:30;12.07;;;7.18;;
49614;SDS011;35517;45.272;9.984;2023-05-23T10:07:59;12.50;;;7.30;;
49614;SDS011;35517;45.272;9.984;2023-05-23T10:10:30;11.88;;;6.97;;
49614;SDS011;35517;45.272;9.984;2023-05-23T10:12:58;6.82;;;6.07;;
49614;SDS011;35517;45.272;9.984;2023-05-23T10:15:29;10.93;;;7.70;;
49614;SDS011;35517;45.272;9.984;2023-05-23T10:18:00;11.40;;;6.03;;
49614;SDS011;35517;45.272;9.984;2023-05-23T10:20:30;10.68;;;6.68;;
49614;SDS011;35517;45.272;9.984;2023-05-23T10:22:58;11.98;;;7.90;;
49614;SDS011;35517;45.272;9.984;2023-05-23T10:25:26;11.20;;;7.18;;
49614;SDS011;35517;45.272;9.984;2023-05-23T10:27:53;13.45;;;9.18;;
49614;SDS011;35517;45.272;9.984;2023-05-23T10:30:23;8.73;;;7.85;;
49614;SDS011;35517;45.272;9.984;2023-05-23T10:32:50;13.27;;;7.72;;
49614;SDS011;35517;45.272;9.984;2023-05-23T10:42:55;9.85;;;7.70;;
49614;SDS011;35517;45.272;9.984;2023-05-23T10:45:23;11.48;;;6.57;;
49614;SDS011;35517;45.272;9.984;2023-05-23T10:47:50;10.90;;;8.88;;
49614;SDS011;35517;45.272;9.984;2023-05-23T10:50:31;11.20;;;6.95;;
49614;SDS011;35517;45.272;9.984;2023-05-23T10:52:59;12.23;;;8.02;;
49614;SDS011;35517;45.272;9.984;2023-05-23T10:55:29;9.95;;;7.35;;
49614;SDS011;35517;45.272;9.984;2023-05-23T11:01:00;14.68;;;8.80;;
49614;SDS011;35517;45.272;9.984;2023-05-23T11:03:34;11.10;;;10.00;;
49614;SDS011;35517;45.272;9.984;2023-05-23T11:06:03;14.30;;;9.05;;
49614;SDS011;35517;45.272;9.984;2023-05-23T11:08:36;11.98;;;9.90;;
49614;SDS011;35517;45.272;9.984;2023-05-23T11:11:04;13.05;;;10.10;;
49614;SDS011;35517;45.272;9.984;2023-05-23T11:16:22;10.23;;;8.98;;
49614;SDS011;35517;45.272;9.984;2023-05-23T11:18:49;12.90;;;8.75;;
49614;SDS011;35517;45.272;9.984;2023-05-23T11:21:15;14.05;;;9.02;;
49614;SDS011;35517;45.272;9.984;2023-05-23T11:23:42;11.57;;;9.85;;
49614;SDS011;35517;45.272;9.984;2023-05-23T11:26:28;17.15;;;9.05;;
49614;SDS011;35517;45.272;9.984;2023-05-23T11:28:55;10.98;;;8.50;;
49614;SDS011;35517;45.272;9.984;2023-05-23T11:31:23;11.77;;;9.07;;
49614;SDS011;35517;45.272;9.984;2023-05-23T11:33:52;11.05;;;9.27;;
49614;SDS011;35517;45.272;9.984;2023-05-23T11:36:22;15.20;;;12.13;;
49614;SDS011;35517;45.272;9.984;2023-05-23T11:38:49;13.95;;;9.75;;
49614;SDS011;35517;45.272;9.984;2023-05-23T11:41:17;15.15;;;10.15;;
49614;SDS011;35517;45.272;9.984;2023-05-23T11:43:48;13.57;;;10.50;;
49614;SDS011;35517;45.272;9.984;2023-05-23T11:46:15;16.15;;;9.50;;
49614;SDS011;35517;45.272;9.984;2023-05-23T11:48:45;14.80;;;9.15;;
49614;SDS011;35517;45.272;9.984;2023-05-23T11:51:12;12.88;;;7.85;;
49614;SDS011;35517;45.272;9.984;2023-05-23T11:53:38;14.07;;;8.55;;
49614;SDS011;35517;45.272;9.984;2023-05-23T11:56:05;10.50;;;8.50;;
49614;SDS011;35517;45.272;9.984;2023-05-23T11:58:33;15.70;;;8.40;;
49614;SDS011;35517;45.272;9.984;2023-05-23T12:01:01;11.35;;;8.32;;
49614;SDS011;35517;45.272;9.984;2023-05-23T12:03:34;9.77;;;7.50;;
49614;SDS011;35517;45.272;9.984;2023-05-23T12:06:02;11.98;;;7.93;;
49614;SDS011;35517;45.272;9.984;2023-05-23T12:08:29;9.25;;;6.93;;
49614;SDS011;35517;45.272;9.984;2023-05-23T12:10:56;12.27;;;7.07;;
49614;SDS011;35517;45.272;9.984;2023-05-23T12:13:23;8.50;;;6.47;;
49614;SDS011;35517;45.272;9.984;2023-05-23T12:15:57;10.63;;;6.10;;
49614;SDS011;35517;45.272;9.984;2023-05-23T12:18:29;11.43;;;6.55;;
49614;SDS011;35517;45.272;9.984;2023-05-23T12:21:02;10.02;;;6.53;;
49614;SDS011;35517;45.272;9.984;2023-05-23T12:23:30;10.63;;;5.18;;
49614;SDS011;35517;45.272;9.984;2023-05-23T12:25:57;8.57;;;5.57;;
49614;SDS011;35517;45.272;9.984;2023-05-23T12:31:20;14.10;;;5.35;;
49614;SDS011;35517;45.272;9.984;2023-05-23T12:33:47;5.47;;;4.38;;
49614;SDS011;35517;45.272;9.984;2023-05-23T12:36:15;9.02;;;4.05;;
49614;SDS011;35517;45.272;9.984;2023-05-23T12:38:46;10.32;;;4.70;;
49614;SDS011;35517;45.272;9.984;2023-05-23T12:41:17;5.55;;;3.60;;
49614;SDS011;35517;45.272;9.984;2023-05-23T12:43:50;6.70;;;4.35;;
49614;SDS011;35517;45.272;9.984;2023-05-23T12:46:18;8.23;;;3.70;;
49614;SDS011;35517;45.272;9.984;2023-05-23T12:48:44;4.97;;;3.22;;
49614;SDS011;35517;45.272;9.984;2023-05-23T12:51:12;7.57;;;4.15;;
49614;SDS011;35517;45.272;9.984;2023-05-23T12:53:39;9.20;;;5.45;;
49614;SDS011;35517;45.272;9.984;2023-05-23T12:56:05;6.00;;;4.47;;
49614;SDS011;35517;45.272;9.984;2023-05-23T12:58:32;7.28;;;4.00;;
49614;SDS011;35517;45.272;9.984;2023-05-23T13:00:59;8.23;;;5.10;;
49614;SDS011;35517;45.272;9.984;2023-05-23T13:03:27;11.35;;;5.57;;
49614;SDS011;35517;45.272;9.984;2023-05-23T13:05:57;10.15;;;5.55;;
49614;SDS011;35517;45.272;9.984;2023-05-23T13:08:23;11.82;;;5.47;;
49614;SDS011;35517;45.272;9.984;2023-05-23T13:10:52;5.35;;;4.53;;
49614;SDS011;35517;45.272;9.984;2023-05-23T13:13:18;7.30;;;4.72;;
49614;SDS011;35517;45.272;9.984;2023-05-23T13:15:45;6.85;;;5.15;;
49614;SDS011;35517;45.272;9.984;2023-05-23T13:18:12;9.90;;;6.03;;
49614;SDS011;35517;45.272;9.984;2023-05-23T13:20:38;7.15;;;5.55;;
49614;SDS011;35517;45.272;9.984;2023-05-23T13:23:06;7.63;;;5.13;;
49614;SDS011;35517;45.272;9.984;2023-05-23T13:25:33;8.52;;;5.32;;
49614;SDS011;35517;45.272;9.984;2023-05-23T13:28:14;8.23;;;5.00;;
49614;SDS011;35517;45.272;9.984;2023-05-23T13:30:40;6.65;;;4.53;;
49614;SDS011;35517;45.272;9.984;2023-05-23T13:33:07;6.78;;;4.60;;
49614;SDS011;35517;45.272;9.984;2023-05-23T13:35:33;9.18;;;3.80;;
49614;SDS011;35517;45.272;9.984;2023-05-23T13:38:00;4.78;;;4.00;;
49614;SDS011;35517;45.272;9.984;2023-05-23T13:40:26;5.68;;;4.13;;
49614;SDS011;35517;45.272;9.984;2023-05-23T13:42:53;9.00;;;3.75;;
49614;SDS011;35517;45.272;9.984;2023-05-23T13:45:20;7.82;;;3.83;;
49614;SDS011;35517;45.272;9.984;2023-05-23T13:47:47;10.65;;;4.03;;
49614;SDS011;35517;45.272;9.984;2023-05-23T13:50:14;5.85;;;3.90;;
49614;SDS011;35517;45.272;9.984;2023-05-23T13:52:40;8.23;;;4.35;;
49614;SDS011;35517;45.272;9.984;2023-05-23T13:55:07;6.55;;;4.38;;
49614;SDS011;35517;45.272;9.984;2023-05-23T13:57:34;6.90;;;3.72;;
49614;SDS011;35517;45.272;9.984;2023-05-23T14:00:00;6.13;;;4.55;;
49614;SDS011;35517;45.272;9.984;2023-05-23T14:02:30;12.57;;;4.10;;
49614;SDS011;35517;45.272;9.984;2023-05-23T14:04:57;5.22;;;3.90;;
49614;SDS011;35517;45.272;9.984;2023-05-23T14:07:24;7.53;;;4.22;;
49614;SDS011;35517;45.272;9.984;2023-05-23T14:09:50;8.00;;;4.57;;
49614;SDS011;35517;45.272;9.984;2023-05-23T14:12:17;9.23;;;3.85;;
49614;SDS011;35517;45.272;9.984;2023-05-23T14:14:43;6.75;;;5.85;;
49614;SDS011;35517;45.272;9.984;2023-05-23T14:17:15;9.60;;;6.63;;
49614;SDS011;35517;45.272;9.984;2023-05-23T14:22:08;16.45;;;5.60;;
49614;SDS011;35517;45.272;9.984;2023-05-23T14:24:35;5.50;;;4.97;;
49614;SDS011;35517;45.272;9.984;2023-05-23T14:27:02;8.48;;;6.28;;
49614;SDS011;35517;45.272;9.984;2023-05-23T14:29:29;9.65;;;5.20;;
49614;SDS011;35517;45.272;9.984;2023-05-23T14:31:56;10.57;;;6.07;;
49614;SDS011;35517;45.272;9.984;2023-05-23T14:34:25;7.68;;;6.35;;
49614;SDS011;35517;45.272;9.984;2023-05-23T14:36:51;8.43;;;6.03;;
49614;SDS011;35517;45.272;9.984;2023-05-23T14:39:18;4.80;;;3.70;;
49614;SDS011;35517;45.272;9.984;2023-05-23T14:41:45;11.00;;;5.78;;
49614;SDS011;35517;45.272;9.984;2023-05-23T14:44:11;14.52;;;5.70;;
49614;SDS011;35517;45.272;9.984;2023-05-23T14:46:37;11.13;;;4.95;;
49614;SDS011;35517;45.272;9.984;2023-05-23T14:49:06;9.18;;;4.78;;
49614;SDS011;35517;45.272;9.984;2023-05-23T14:51:32;5.93;;;4.05;;
49614;SDS011;35517;45.272;9.984;2023-05-23T14:53:59;5.80;;;4.05;;
49614;SDS011;35517;45.272;9.984;2023-05-23T14:56:25;9.60;;;4.57;;
49614;SDS011;35517;45.272;9.984;2023-05-23T14:58:52;9.07;;;5.45;;
49614;SDS011;35517;45.272;9.984;2023-05-23T15:01:20;5.50;;;4.95;;
49614;SDS011;35517;45.272;9.984;2023-05-23T15:03:47;7.85;;;4.60;;
49614;SDS011;35517;45.272;9.984;2023-05-23T15:06:13;7.53;;;5.28;;
49614;SDS011;35517;45.272;9.984;2023-05-23T15:08:40;5.95;;;4.65;;
49614;SDS011;35517;45.272;9.984;2023-05-23T15:11:06;10.30;;;4.45;;
49614;SDS011;35517;45.272;9.984;2023-05-23T15:13:34;9.88;;;4.85;;
49614;SDS011;35517;45.272;9.984;2023-05-23T15:16:00;10.70;;;5.45;;
49614;SDS011;35517;45.272;9.984;2023-05-23T15:18:27;6.18;;;4.90;;
49614;SDS011;35517;45.272;9.984;2023-05-23T15:20:54;11.52;;;4.45;;